Aviation Digital Data Service (ADDS)

Output produced by TAFs form (1419 UTC 16 July 2018)
found at http://www.aviationweather.gov/adds/tafs/
 
METAR text: ESSA 161350Z 15011KT CAVOK 31/10 Q1014 NOSIG
Conditions at: ESSA (STOCKHOLM/ARLAND, SE) observed 1350 UTC 16 July 2018
Temperature: 31.0°C (88°F)
Dewpoint: 10.0°C (50°F) [RH = 27%]
Pressure (altimeter): 29.94 inches Hg (1014.0 mb)
Winds: from the SSE (150 degrees) at 13 MPH (11 knots; 5.7 m/s)
Visibility: 6 or more miles (10+ km)
Ceiling: ceiling and visibility are OK
Clouds: unknown
Weather: no significant weather observed at this time

Forecast for: ESSA (STOCKHOLM/ARLAND, SE)
Text: TAF AMD ESSA 161351Z 1613/1712 13008KT CAVOK
Forecast period: 1300 UTC 16 July 2018 to 1200 UTC 17 July 2018
Forecast type: FROM: standard forecast or significant change
Winds: from the SE (130 degrees) at 9 MPH (8 knots; 4.2 m/s)
Visibility: 6 or more miles (10+ km)
Clouds: not forecast
Weather: NSW  (no significant weather)